sensor_id;sensor_type;location;lat;lon;timestamp;P1;durP1;ratioP1;P2;durP2;ratioP2
76210;SDS011;65003;49.518;11.280;2023-06-10T00:02:26;5.90;;;5.30;;
76210;SDS011;65003;49.518;11.280;2023-06-10T00:04:52;6.30;;;5.43;;
76210;SDS011;65003;49.518;11.280;2023-06-10T00:07:19;8.07;;;5.13;;
76210;SDS011;65003;49.518;11.280;2023-06-10T00:09:45;6.83;;;5.70;;
76210;SDS011;65003;49.518;11.280;2023-06-10T00:12:12;5.47;;;4.60;;
76210;SDS011;65003;49.518;11.280;2023-06-10T00:14:39;5.70;;;5.10;;
76210;SDS011;65003;49.518;11.280;2023-06-10T00:17:06;5.50;;;4.60;;
76210;SDS011;65003;49.518;11.280;2023-06-10T00:19:36;5.50;;;5.00;;
76210;SDS011;65003;49.518;11.280;2023-06-10T00:22:01;5.37;;;4.87;;
76210;SDS011;65003;49.518;11.280;2023-06-10T00:24:28;8.53;;;5.50;;
76210;SDS011;65003;49.518;11.280;2023-06-10T00:26:55;5.90;;;4.50;;
76210;SDS011;65003;49.518;11.280;2023-06-10T00:29:21;5.90;;;5.07;;
76210;SDS011;65003;49.518;11.280;2023-06-10T00:31:48;6.10;;;5.50;;
76210;SDS011;65003;49.518;11.280;2023-06-10T00:34:15;5.63;;;5.03;;
76210;SDS011;65003;49.518;11.280;2023-06-10T00:36:41;6.07;;;5.40;;
76210;SDS011;65003;49.518;11.280;2023-06-10T00:39:08;6.03;;;5.03;;
76210;SDS011;65003;49.518;11.280;2023-06-10T00:41:34;6.17;;;5.57;;
76210;SDS011;65003;49.518;11.280;2023-06-10T00:44:01;7.77;;;5.03;;
76210;SDS011;65003;49.518;11.280;2023-06-10T00:46:27;9.03;;;5.03;;
76210;SDS011;65003;49.518;11.280;2023-06-10T00:48:54;6.13;;;5.00;;
76210;SDS011;65003;49.518;11.280;2023-06-10T00:51:21;6.57;;;5.27;;
76210;SDS011;65003;49.518;11.280;2023-06-10T00:53:47;6.37;;;5.37;;
76210;SDS011;65003;49.518;11.280;2023-06-10T00:56:14;7.57;;;5.03;;
76210;SDS011;65003;49.518;11.280;2023-06-10T00:58:41;6.27;;;5.47;;
76210;SDS011;65003;49.518;11.280;2023-06-10T01:01:07;7.00;;;5.80;;
76210;SDS011;65003;49.518;11.280;2023-06-10T01:03:34;7.17;;;4.80;;
76210;SDS011;65003;49.518;11.280;2023-06-10T01:06:03;5.83;;;5.17;;
76210;SDS011;65003;49.518;11.280;2023-06-10T01:08:29;5.67;;;5.07;;
76210;SDS011;65003;49.518;11.280;2023-06-10T01:10:56;6.73;;;5.77;;
76210;SDS011;65003;49.518;11.280;2023-06-10T01:13:21;6.20;;;5.27;;
76210;SDS011;65003;49.518;11.280;2023-06-10T01:15:48;5.80;;;5.20;;
76210;SDS011;65003;49.518;11.280;2023-06-10T01:18:14;6.47;;;5.60;;
76210;SDS011;65003;49.518;11.280;2023-06-10T01:20:41;6.57;;;5.27;;
76210;SDS011;65003;49.518;11.280;2023-06-10T01:23:08;5.63;;;5.03;;
76210;SDS011;65003;49.518;11.280;2023-06-10T01:25:37;7.90;;;5.57;;
76210;SDS011;65003;49.518;11.280;2023-06-10T01:28:07;6.97;;;5.30;;
76210;SDS011;65003;49.518;11.280;2023-06-10T01:30:32;6.03;;;5.43;;
76210;SDS011;65003;49.518;11.280;2023-06-10T01:32:57;6.47;;;5.87;;
76210;SDS011;65003;49.518;11.280;2023-06-10T01:35:24;7.60;;;5.83;;
76210;SDS011;65003;49.518;11.280;2023-06-10T01:37:51;6.77;;;6.10;;
76210;SDS011;65003;49.518;11.280;2023-06-10T01:40:17;6.50;;;5.90;;
76210;SDS011;65003;49.518;11.280;2023-06-10T01:42:44;8.90;;;5.07;;
76210;SDS011;65003;49.518;11.280;2023-06-10T01:45:11;5.93;;;5.33;;
76210;SDS011;65003;49.518;11.280;2023-06-10T01:47:38;5.93;;;5.33;;
76210;SDS011;65003;49.518;11.280;2023-06-10T01:50:05;6.87;;;6.07;;
76210;SDS011;65003;49.518;11.280;2023-06-10T01:52:32;7.77;;;5.67;;
76210;SDS011;65003;49.518;11.280;2023-06-10T01:54:59;6.37;;;5.67;;
76210;SDS011;65003;49.518;11.280;2023-06-10T01:57:25;8.83;;;6.17;;
76210;SDS011;65003;49.518;11.280;2023-06-10T01:59:52;6.47;;;5.87;;
76210;SDS011;65003;49.518;11.280;2023-06-10T02:02:19;9.63;;;5.80;;
76210;SDS011;65003;49.518;11.280;2023-06-10T02:04:45;6.00;;;5.37;;
76210;SDS011;65003;49.518;11.280;2023-06-10T02:07:12;6.23;;;5.63;;
76210;SDS011;65003;49.518;11.280;2023-06-10T02:09:38;7.27;;;6.53;;
76210;SDS011;65003;49.518;11.280;2023-06-10T02:12:05;8.27;;;6.40;;
76210;SDS011;65003;49.518;11.280;2023-06-10T02:14:32;6.43;;;5.73;;
76210;SDS011;65003;49.518;11.280;2023-06-10T02:16:59;6.43;;;5.83;;
76210;SDS011;65003;49.518;11.280;2023-06-10T02:19:25;7.07;;;6.37;;
76210;SDS011;65003;49.518;11.280;2023-06-10T02:21:52;6.63;;;6.00;;
76210;SDS011;65003;49.518;11.280;2023-06-10T02:24:19;7.73;;;6.27;;
76210;SDS011;65003;49.518;11.280;2023-06-10T02:26:45;8.50;;;6.43;;
76210;SDS011;65003;49.518;11.280;2023-06-10T02:29:12;8.17;;;6.30;;
76210;SDS011;65003;49.518;11.280;2023-06-10T02:31:38;7.10;;;6.37;;
76210;SDS011;65003;49.518;11.280;2023-06-10T02:34:05;7.07;;;6.37;;
76210;SDS011;65003;49.518;11.280;2023-06-10T02:36:32;10.10;;;6.70;;
76210;SDS011;65003;49.518;11.280;2023-06-10T02:38:58;9.03;;;6.23;;
76210;SDS011;65003;49.518;11.280;2023-06-10T02:41:25;8.90;;;6.93;;
76210;SDS011;65003;49.518;11.280;2023-06-10T02:43:51;8.27;;;6.70;;
76210;SDS011;65003;49.518;11.280;2023-06-10T02:46:18;7.43;;;6.50;;
76210;SDS011;65003;49.518;11.280;2023-06-10T02:48:45;9.93;;;6.67;;
76210;SDS011;65003;49.518;11.280;2023-06-10T02:51:11;7.20;;;6.50;;
76210;SDS011;65003;49.518;11.280;2023-06-10T02:53:38;7.57;;;6.43;;
76210;SDS011;65003;49.518;11.280;2023-06-10T02:56:04;7.67;;;6.60;;
76210;SDS011;65003;49.518;11.280;2023-06-10T02:58:31;7.73;;;6.37;;
76210;SDS011;65003;49.518;11.280;2023-06-10T03:00:58;7.47;;;6.67;;
76210;SDS011;65003;49.518;11.280;2023-06-10T03:03:24;7.10;;;6.40;;
76210;SDS011;65003;49.518;11.280;2023-06-10T03:05:51;8.90;;;6.60;;
76210;SDS011;65003;49.518;11.280;2023-06-10T03:08:17;8.80;;;7.10;;
76210;SDS011;65003;49.518;11.280;2023-06-10T03:10:44;7.37;;;6.63;;
76210;SDS011;65003;49.518;11.280;2023-06-10T03:13:10;6.93;;;6.23;;
76210;SDS011;65003;49.518;11.280;2023-06-10T03:15:37;7.13;;;6.43;;
76210;SDS011;65003;49.518;11.280;2023-06-10T03:18:04;7.20;;;6.37;;
76210;SDS011;65003;49.518;11.280;2023-06-10T03:20:30;7.97;;;6.33;;
76210;SDS011;65003;49.518;11.280;2023-06-10T03:22:57;7.13;;;6.40;;
76210;SDS011;65003;49.518;11.280;2023-06-10T03:25:23;7.87;;;6.30;;
76210;SDS011;65003;49.518;11.280;2023-06-10T03:27:50;6.47;;;5.80;;
76210;SDS011;65003;49.518;11.280;2023-06-10T03:30:17;8.33;;;6.13;;
76210;SDS011;65003;49.518;11.280;2023-06-10T03:32:43;7.70;;;6.53;;
76210;SDS011;65003;49.518;11.280;2023-06-10T03:35:10;6.67;;;6.13;;
76210;SDS011;65003;49.518;11.280;2023-06-10T03:37:36;6.37;;;5.77;;
76210;SDS011;65003;49.518;11.280;2023-06-10T03:40:03;7.53;;;5.93;;
76210;SDS011;65003;49.518;11.280;2023-06-10T03:42:30;8.73;;;6.50;;
76210;SDS011;65003;49.518;11.280;2023-06-10T03:44:57;7.73;;;6.73;;
76210;SDS011;65003;49.518;11.280;2023-06-10T03:47:23;6.93;;;6.20;;
76210;SDS011;65003;49.518;11.280;2023-06-10T03:49:50;7.27;;;6.50;;
76210;SDS011;65003;49.518;11.280;2023-06-10T03:52:17;7.60;;;6.10;;
76210;SDS011;65003;49.518;11.280;2023-06-10T03:54:43;9.03;;;6.63;;
76210;SDS011;65003;49.518;11.280;2023-06-10T03:57:10;8.20;;;6.67;;
76210;SDS011;65003;49.518;11.280;2023-06-10T03:59:37;7.30;;;6.60;;
76210;SDS011;65003;49.518;11.280;2023-06-10T04:02:03;7.53;;;6.70;;
76210;SDS011;65003;49.518;11.280;2023-06-10T04:04:30;7.67;;;6.87;;
76210;SDS011;65003;49.518;11.280;2023-06-10T04:06:57;8.93;;;7.27;;
76210;SDS011;65003;49.518;11.280;2023-06-10T04:09:23;8.30;;;7.20;;
76210;SDS011;65003;49.518;11.280;2023-06-10T04:11:50;8.10;;;7.03;;
76210;SDS011;65003;49.518;11.280;2023-06-10T04:14:16;7.43;;;6.73;;
76210;SDS011;65003;49.518;11.280;2023-06-10T04:16:43;8.53;;;6.50;;
76210;SDS011;65003;49.518;11.280;2023-06-10T04:19:10;7.50;;;6.70;;
76210;SDS011;65003;49.518;11.280;2023-06-10T04:21:36;8.37;;;6.63;;
76210;SDS011;65003;49.518;11.280;2023-06-10T04:24:03;7.67;;;6.77;;
76210;SDS011;65003;49.518;11.280;2023-06-10T04:26:30;7.70;;;6.93;;
76210;SDS011;65003;49.518;11.280;2023-06-10T04:28:56;7.67;;;6.87;;
76210;SDS011;65003;49.518;11.280;2023-06-10T04:31:23;7.33;;;6.03;;
76210;SDS011;65003;49.518;11.280;2023-06-10T04:33:49;9.07;;;6.60;;
76210;SDS011;65003;49.518;11.280;2023-06-10T04:36:16;8.97;;;6.93;;
76210;SDS011;65003;49.518;11.280;2023-06-10T04:38:43;8.13;;;6.03;;
76210;SDS011;65003;49.518;11.280;2023-06-10T04:41:09;7.50;;;6.50;;
76210;SDS011;65003;49.518;11.280;2023-06-10T04:43:36;7.43;;;6.50;;
76210;SDS011;65003;49.518;11.280;2023-06-10T04:46:02;7.13;;;6.43;;
76210;SDS011;65003;49.518;11.280;2023-06-10T04:48:29;7.87;;;7.07;;
76210;SDS011;65003;49.518;11.280;2023-06-10T04:50:55;7.60;;;6.77;;
76210;SDS011;65003;49.518;11.280;2023-06-10T04:53:22;7.57;;;6.60;;
76210;SDS011;65003;49.518;11.280;2023-06-10T04:55:49;8.90;;;6.73;;
76210;SDS011;65003;49.518;11.280;2023-06-10T04:58:15;7.10;;;6.43;;
76210;SDS011;65003;49.518;11.280;2023-06-10T05:00:42;6.93;;;6.10;;
76210;SDS011;65003;49.518;11.280;2023-06-10T05:03:09;8.30;;;6.33;;
76210;SDS011;65003;49.518;11.280;2023-06-10T05:05:35;7.73;;;6.27;;
76210;SDS011;65003;49.518;11.280;2023-06-10T05:08:02;7.43;;;6.33;;
76210;SDS011;65003;49.518;11.280;2023-06-10T05:10:29;9.17;;;6.30;;
76210;SDS011;65003;49.518;11.280;2023-06-10T05:12:55;7.67;;;6.87;;
76210;SDS011;65003;49.518;11.280;2023-06-10T05:15:22;8.70;;;6.47;;
76210;SDS011;65003;49.518;11.280;2023-06-10T05:17:48;6.80;;;6.17;;
76210;SDS011;65003;49.518;11.280;2023-06-10T05:20:15;6.97;;;6.33;;
76210;SDS011;65003;49.518;11.280;2023-06-10T05:22:42;6.97;;;6.37;;
76210;SDS011;65003;49.518;11.280;2023-06-10T05:25:08;7.27;;;6.03;;
76210;SDS011;65003;49.518;11.280;2023-06-10T05:27:35;7.43;;;6.13;;
76210;SDS011;65003;49.518;11.280;2023-06-10T05:30:02;7.20;;;6.57;;
76210;SDS011;65003;49.518;11.280;2023-06-10T05:32:28;6.57;;;5.87;;
76210;SDS011;65003;49.518;11.280;2023-06-10T05:34:55;8.37;;;6.27;;
76210;SDS011;65003;49.518;11.280;2023-06-10T05:37:21;8.43;;;6.87;;
76210;SDS011;65003;49.518;11.280;2023-06-10T05:39:48;6.77;;;6.17;;
76210;SDS011;65003;49.518;11.280;2023-06-10T05:42:14;7.10;;;6.40;;
76210;SDS011;65003;49.518;11.280;2023-06-10T05:44:41;6.40;;;5.80;;
76210;SDS011;65003;49.518;11.280;2023-06-10T05:47:08;6.57;;;5.70;;
76210;SDS011;65003;49.518;11.280;2023-06-10T05:49:34;7.60;;;6.23;;
76210;SDS011;65003;49.518;11.280;2023-06-10T05:52:01;6.43;;;5.83;;
76210;SDS011;65003;49.518;11.280;2023-06-10T05:54:27;5.90;;;5.40;;
76210;SDS011;65003;49.518;11.280;2023-06-10T05:56:54;7.10;;;6.40;;
76210;SDS011;65003;49.518;11.280;2023-06-10T05:59:21;6.93;;;5.97;;
76210;SDS011;65003;49.518;11.280;2023-06-10T06:01:48;6.20;;;5.60;;
76210;SDS011;65003;49.518;11.280;2023-06-10T06:04:14;5.73;;;5.23;;
76210;SDS011;65003;49.518;11.280;2023-06-10T06:06:41;6.27;;;5.77;;
76210;SDS011;65003;49.518;11.280;2023-06-10T06:09:07;6.63;;;5.80;;
76210;SDS011;65003;49.518;11.280;2023-06-10T06:11:34;6.00;;;5.50;;
76210;SDS011;65003;49.518;11.280;2023-06-10T06:14:01;6.53;;;5.07;;
76210;SDS011;65003;49.518;11.280;2023-06-10T06:16:27;6.50;;;5.83;;
76210;SDS011;65003;49.518;11.280;2023-06-10T06:18:54;6.23;;;5.63;;
76210;SDS011;65003;49.518;11.280;2023-06-10T06:21:20;6.03;;;5.50;;
76210;SDS011;65003;49.518;11.280;2023-06-10T06:23:47;6.87;;;5.67;;
76210;SDS011;65003;49.518;11.280;2023-06-10T06:26:13;6.20;;;5.60;;
76210;SDS011;65003;49.518;11.280;2023-06-10T06:28:40;6.13;;;5.30;;
76210;SDS011;65003;49.518;11.280;2023-06-10T06:31:07;5.80;;;5.20;;
76210;SDS011;65003;49.518;11.280;2023-06-10T06:33:33;5.87;;;5.37;;
76210;SDS011;65003;49.518;11.280;2023-06-10T06:36:00;5.80;;;5.30;;
76210;SDS011;65003;49.518;11.280;2023-06-10T06:38:26;6.07;;;5.43;;
76210;SDS011;65003;49.518;11.280;2023-06-10T06:40:53;5.57;;;5.07;;
76210;SDS011;65003;49.518;11.280;2023-06-10T06:43:20;5.63;;;5.13;;
76210;SDS011;65003;49.518;11.280;2023-06-10T06:45:46;6.23;;;4.70;;
76210;SDS011;65003;49.518;11.280;2023-06-10T06:48:13;5.37;;;4.57;;
76210;SDS011;65003;49.518;11.280;2023-06-10T06:50:39;5.27;;;4.87;;
76210;SDS011;65003;49.518;11.280;2023-06-10T06:53:06;5.07;;;4.53;;
76210;SDS011;65003;49.518;11.280;2023-06-10T06:55:33;4.77;;;4.37;;
76210;SDS011;65003;49.518;11.280;2023-06-10T06:57:59;5.77;;;5.00;;
76210;SDS011;65003;49.518;11.280;2023-06-10T07:00:26;5.17;;;4.77;;
76210;SDS011;65003;49.518;11.280;2023-06-10T07:02:53;4.80;;;4.40;;
76210;SDS011;65003;49.518;11.280;2023-06-10T07:05:19;9.97;;;4.40;;
76210;SDS011;65003;49.518;11.280;2023-06-10T07:07:46;5.27;;;4.53;;
76210;SDS011;65003;49.518;11.280;2023-06-10T07:10:13;4.93;;;4.43;;
76210;SDS011;65003;49.518;11.280;2023-06-10T07:12:39;5.40;;;4.80;;
76210;SDS011;65003;49.518;11.280;2023-06-10T07:15:06;5.37;;;4.90;;
76210;SDS011;65003;49.518;11.280;2023-06-10T07:17:33;5.17;;;4.23;;
76210;SDS011;65003;49.518;11.280;2023-06-10T07:20:00;5.10;;;4.57;;
76210;SDS011;65003;49.518;11.280;2023-06-10T07:22:26;5.20;;;4.70;;
76210;SDS011;65003;49.518;11.280;2023-06-10T07:24:53;6.97;;;4.80;;
76210;SDS011;65003;49.518;11.280;2023-06-10T07:27:19;5.00;;;4.20;;
76210;SDS011;65003;49.518;11.280;2023-06-10T07:29:46;4.30;;;4.00;;
76210;SDS011;65003;49.518;11.280;2023-06-10T07:32:13;3.87;;;3.57;;
76210;SDS011;65003;49.518;11.280;2023-06-10T07:34:39;5.03;;;4.20;;
76210;SDS011;65003;49.518;11.280;2023-06-10T07:37:06;4.17;;;3.87;;
76210;SDS011;65003;49.518;11.280;2023-06-10T07:39:32;4.30;;;3.90;;
76210;SDS011;65003;49.518;11.280;2023-06-10T07:41:59;4.40;;;4.10;;
76210;SDS011;65003;49.518;11.280;2023-06-10T07:44:26;4.50;;;4.10;;
76210;SDS011;65003;49.518;11.280;2023-06-10T07:46:52;3.80;;;3.50;;
76210;SDS011;65003;49.518;11.280;2023-06-10T07:49:19;3.63;;;3.27;;
76210;SDS011;65003;49.518;11.280;2023-06-10T07:51:45;6.03;;;3.60;;
76210;SDS011;65003;49.518;11.280;2023-06-10T07:54:12;3.77;;;3.47;;
76210;SDS011;65003;49.518;11.280;2023-06-10T07:56:39;4.47;;;3.60;;
76210;SDS011;65003;49.518;11.280;2023-06-10T07:59:05;3.60;;;3.30;;
76210;SDS011;65003;49.518;11.280;2023-06-10T08:01:32;4.80;;;3.30;;
76210;SDS011;65003;49.518;11.280;2023-06-10T08:03:59;3.30;;;3.00;;
76210;SDS011;65003;49.518;11.280;2023-06-10T08:06:25;3.40;;;3.13;;
76210;SDS011;65003;49.518;11.280;2023-06-10T08:08:52;3.33;;;3.13;;
76210;SDS011;65003;49.518;11.280;2023-06-10T08:11:19;3.50;;;3.20;;
76210;SDS011;65003;49.518;11.280;2023-06-10T08:13:45;3.50;;;3.00;;
76210;SDS011;65003;49.518;11.280;2023-06-10T08:16:12;2.87;;;2.67;;
76210;SDS011;65003;49.518;11.280;2023-06-10T08:18:38;3.43;;;3.10;;
76210;SDS011;65003;49.518;11.280;2023-06-10T08:21:05;2.93;;;2.73;;
76210;SDS011;65003;49.518;11.280;2023-06-10T08:23:32;3.10;;;2.90;;
76210;SDS011;65003;49.518;11.280;2023-06-10T08:25:58;3.33;;;2.90;;
76210;SDS011;65003;49.518;11.280;2023-06-10T08:28:25;4.23;;;2.87;;
76210;SDS011;65003;49.518;11.280;2023-06-10T08:30:51;3.30;;;3.00;;
76210;SDS011;65003;49.518;11.280;2023-06-10T08:33:18;4.07;;;3.37;;
76210;SDS011;65003;49.518;11.280;2023-06-10T08:35:45;2.80;;;2.60;;
76210;SDS011;65003;49.518;11.280;2023-06-10T08:38:11;3.43;;;3.13;;
76210;SDS011;65003;49.518;11.280;2023-06-10T08:40:38;4.50;;;3.13;;
76210;SDS011;65003;49.518;11.280;2023-06-10T08:43:06;3.60;;;3.13;;
76210;SDS011;65003;49.518;11.280;2023-06-10T08:45:33;3.60;;;3.30;;
76210;SDS011;65003;49.518;11.280;2023-06-10T08:47:58;3.80;;;3.50;;
76210;SDS011;65003;49.518;11.280;2023-06-10T08:50:25;3.87;;;3.57;;
76210;SDS011;65003;49.518;11.280;2023-06-10T08:52:53;3.93;;;3.60;;
76210;SDS011;65003;49.518;11.280;2023-06-10T08:55:19;3.40;;;3.10;;
76210;SDS011;65003;49.518;11.280;2023-06-10T08:57:46;3.43;;;3.13;;
76210;SDS011;65003;49.518;11.280;2023-06-10T09:00:13;3.23;;;2.93;;
76210;SDS011;65003;49.518;11.280;2023-06-10T09:02:40;4.73;;;3.33;;
76210;SDS011;65003;49.518;11.280;2023-06-10T09:05:07;3.60;;;3.30;;
76210;SDS011;65003;49.518;11.280;2023-06-10T09:07:34;4.10;;;3.70;;
76210;SDS011;65003;49.518;11.280;2023-06-10T09:10:01;3.73;;;3.37;;
76210;SDS011;65003;49.518;11.280;2023-06-10T09:12:28;3.60;;;3.30;;
76210;SDS011;65003;49.518;11.280;2023-06-10T09:14:55;3.50;;;3.07;;
76210;SDS011;65003;49.518;11.280;2023-06-10T09:17:21;3.53;;;3.23;;
76210;SDS011;65003;49.518;11.280;2023-06-10T09:19:48;3.30;;;3.00;;
76210;SDS011;65003;49.518;11.280;2023-06-10T09:22:14;3.70;;;3.40;;
76210;SDS011;65003;49.518;11.280;2023-06-10T09:24:41;3.60;;;2.83;;
76210;SDS011;65003;49.518;11.280;2023-06-10T09:27:08;3.47;;;3.20;;
76210;SDS011;65003;49.518;11.280;2023-06-10T09:32:12;3.83;;;3.53;;
76210;SDS011;65003;49.518;11.280;2023-06-10T09:34:38;3.77;;;3.47;;
76210;SDS011;65003;49.518;11.280;2023-06-10T09:37:05;4.87;;;3.87;;
76210;SDS011;65003;49.518;11.280;2023-06-10T09:39:31;4.10;;;3.70;;
76210;SDS011;65003;49.518;11.280;2023-06-10T09:41:58;3.80;;;3.50;;
76210;SDS011;65003;49.518;11.280;2023-06-10T09:44:24;5.30;;;3.57;;
76210;SDS011;65003;49.518;11.280;2023-06-10T09:46:51;3.70;;;3.33;;
76210;SDS011;65003;49.518;11.280;2023-06-10T09:49:17;4.00;;;3.53;;
76210;SDS011;65003;49.518;11.280;2023-06-10T09:51:50;3.87;;;3.57;;
76210;SDS011;65003;49.518;11.280;2023-06-10T09:54:16;3.70;;;3.40;;
76210;SDS011;65003;49.518;11.280;2023-06-10T09:56:43;5.23;;;3.80;;
76210;SDS011;65003;49.518;11.280;2023-06-10T09:59:09;4.00;;;3.70;;
76210;SDS011;65003;49.518;11.280;2023-06-10T10:01:36;4.20;;;3.90;;
76210;SDS011;65003;49.518;11.280;2023-06-10T10:04:03;3.30;;;3.10;;
76210;SDS011;65003;49.518;11.280;2023-06-10T10:06:29;3.33;;;3.03;;
76210;SDS011;65003;49.518;11.280;2023-06-10T10:08:56;5.83;;;3.47;;
76210;SDS011;65003;49.518;11.280;2023-06-10T10:11:23;3.90;;;3.60;;
76210;SDS011;65003;49.518;11.280;2023-06-10T10:13:50;4.10;;;3.63;;
76210;SDS011;65003;49.518;11.280;2023-06-10T10:16:17;3.80;;;3.13;;
76210;SDS011;65003;49.518;11.280;2023-06-10T10:18:46;3.70;;;3.40;;
76210;SDS011;65003;49.518;11.280;2023-06-10T10:21:13;4.50;;;3.50;;
76210;SDS011;65003;49.518;11.280;2023-06-10T10:23:40;4.27;;;3.87;;
76210;SDS011;65003;49.518;11.280;2023-06-10T10:26:07;3.63;;;3.33;;
76210;SDS011;65003;49.518;11.280;2023-06-10T10:28:36;4.20;;;3.40;;
76210;SDS011;65003;49.518;11.280;2023-06-10T10:31:08;3.70;;;3.40;;
76210;SDS011;65003;49.518;11.280;2023-06-10T10:33:31;3.97;;;3.67;;
76210;SDS011;65003;49.518;11.280;2023-06-10T10:35:56;3.70;;;3.40;;
76210;SDS011;65003;49.518;11.280;2023-06-10T10:38:22;3.50;;;3.20;;
76210;SDS011;65003;49.518;11.280;2023-06-10T10:40:49;3.30;;;3.00;;
76210;SDS011;65003;49.518;11.280;2023-06-10T10:43:15;3.77;;;3.47;;
76210;SDS011;65003;49.518;11.280;2023-06-10T10:45:42;3.50;;;3.20;;
76210;SDS011;65003;49.518;11.280;2023-06-10T10:48:09;3.90;;;3.60;;
76210;SDS011;65003;49.518;11.280;2023-06-10T10:50:36;3.60;;;3.30;;
76210;SDS011;65003;49.518;11.280;2023-06-10T10:53:03;3.50;;;3.20;;
76210;SDS011;65003;49.518;11.280;2023-06-10T10:55:29;3.57;;;3.27;;
76210;SDS011;65003;49.518;11.280;2023-06-10T10:57:59;3.50;;;2.90;;
76210;SDS011;65003;49.518;11.280;2023-06-10T11:00:29;2.87;;;2.67;;
76210;SDS011;65003;49.518;11.280;2023-06-10T11:03:00;3.40;;;3.10;;
76210;SDS011;65003;49.518;11.280;2023-06-10T11:05:31;3.03;;;2.83;;
76210;SDS011;65003;49.518;11.280;2023-06-10T11:07:58;3.62;;;3.27;;
76210;SDS011;65003;49.518;11.280;2023-06-10T11:10:29;3.20;;;3.00;;
76210;SDS011;65003;49.518;11.280;2023-06-10T11:12:58;3.10;;;2.90;;
76210;SDS011;65003;49.518;11.280;2023-06-10T11:15:25;4.50;;;3.53;;
76210;SDS011;65003;49.518;11.280;2023-06-10T11:18:08;3.33;;;3.03;;
76210;SDS011;65003;49.518;11.280;2023-06-10T11:23:10;2.90;;;2.70;;
76210;SDS011;65003;49.518;11.280;2023-06-10T11:25:38;4.80;;;3.27;;
76210;SDS011;65003;49.518;11.280;2023-06-10T11:28:17;3.13;;;2.83;;
76210;SDS011;65003;49.518;11.280;2023-06-10T11:30:34;4.10;;;3.20;;
76210;SDS011;65003;49.518;11.280;2023-06-10T11:32:58;2.97;;;2.77;;
76210;SDS011;65003;49.518;11.280;2023-06-10T11:35:25;4.00;;;3.13;;
76210;SDS011;65003;49.518;11.280;2023-06-10T11:37:51;3.20;;;3.00;;
76210;SDS011;65003;49.518;11.280;2023-06-10T11:40:18;3.17;;;2.97;;
76210;SDS011;65003;49.518;11.280;2023-06-10T11:42:44;3.17;;;2.97;;
76210;SDS011;65003;49.518;11.280;2023-06-10T11:45:14;3.00;;;2.80;;
76210;SDS011;65003;49.518;11.280;2023-06-10T11:47:38;2.87;;;2.50;;
76210;SDS011;65003;49.518;11.280;2023-06-10T11:50:04;3.13;;;2.60;;
76210;SDS011;65003;49.518;11.280;2023-06-10T11:52:31;3.57;;;2.70;;
76210;SDS011;65003;49.518;11.280;2023-06-10T11:54:58;2.90;;;2.70;;
76210;SDS011;65003;49.518;11.280;2023-06-10T11:57:24;3.87;;;3.57;;
76210;SDS011;65003;49.518;11.280;2023-06-10T11:59:51;3.20;;;3.00;;
76210;SDS011;65003;49.518;11.280;2023-06-10T12:02:17;5.30;;;4.00;;
76210;SDS011;65003;49.518;11.280;2023-06-10T12:04:44;3.57;;;2.77;;
76210;SDS011;65003;49.518;11.280;2023-06-10T12:07:16;2.90;;;2.70;;
76210;SDS011;65003;49.518;11.280;2023-06-10T12:09:45;3.00;;;2.70;;
76210;SDS011;65003;49.518;11.280;2023-06-10T12:12:12;2.40;;;2.30;;
76210;SDS011;65003;49.518;11.280;2023-06-10T12:17:16;2.90;;;2.70;;
76210;SDS011;65003;49.518;11.280;2023-06-10T12:19:42;3.13;;;2.83;;
76210;SDS011;65003;49.518;11.280;2023-06-10T12:22:10;2.80;;;2.60;;
76210;SDS011;65003;49.518;11.280;2023-06-10T12:27:11;3.13;;;2.53;;
76210;SDS011;65003;49.518;11.280;2023-06-10T12:29:37;2.77;;;2.47;;
76210;SDS011;65003;49.518;11.280;2023-06-10T12:32:04;13.83;;;12.53;;
76210;SDS011;65003;49.518;11.280;2023-06-10T12:34:33;4.40;;;3.20;;
76210;SDS011;65003;49.518;11.280;2023-06-10T12:36:59;4.67;;;4.27;;
76210;SDS011;65003;49.518;11.280;2023-06-10T12:39:25;3.00;;;2.80;;
76210;SDS011;65003;49.518;11.280;2023-06-10T12:41:52;2.67;;;2.47;;
76210;SDS011;65003;49.518;11.280;2023-06-10T12:44:18;4.40;;;3.57;;
76210;SDS011;65003;49.518;11.280;2023-06-10T12:46:45;3.80;;;3.43;;
76210;SDS011;65003;49.518;11.280;2023-06-10T12:51:45;18.47;;;15.23;;
76210;SDS011;65003;49.518;11.280;2023-06-10T12:54:11;3.10;;;2.90;;
76210;SDS011;65003;49.518;11.280;2023-06-10T12:56:38;4.00;;;3.70;;
76210;SDS011;65003;49.518;11.280;2023-06-10T12:59:04;2.10;;;2.00;;
76210;SDS011;65003;49.518;11.280;2023-06-10T13:01:31;2.10;;;2.00;;
76210;SDS011;65003;49.518;11.280;2023-06-10T13:03:58;1.90;;;1.80;;
76210;SDS011;65003;49.518;11.280;2023-06-10T13:06:24;2.10;;;1.97;;
76210;SDS011;65003;49.518;11.280;2023-06-10T13:08:51;2.23;;;2.03;;
76210;SDS011;65003;49.518;11.280;2023-06-10T13:11:18;1.93;;;1.83;;
76210;SDS011;65003;49.518;11.280;2023-06-10T13:13:44;2.70;;;2.27;;
76210;SDS011;65003;49.518;11.280;2023-06-10T13:16:11;1.97;;;1.80;;
76210;SDS011;65003;49.518;11.280;2023-06-10T13:18:38;3.60;;;3.30;;
76210;SDS011;65003;49.518;11.280;2023-06-10T13:21:04;3.33;;;2.23;;
76210;SDS011;65003;49.518;11.280;2023-06-10T13:23:31;4.40;;;3.63;;
76210;SDS011;65003;49.518;11.280;2023-06-10T13:25:57;2.63;;;2.40;;
76210;SDS011;65003;49.518;11.280;2023-06-10T13:28:24;4.37;;;2.30;;
76210;SDS011;65003;49.518;11.280;2023-06-10T13:30:50;2.43;;;2.23;;
76210;SDS011;65003;49.518;11.280;2023-06-10T13:33:17;2.73;;;2.37;;
76210;SDS011;65003;49.518;11.280;2023-06-10T13:35:44;2.53;;;2.30;;
76210;SDS011;65003;49.518;11.280;2023-06-10T13:38:10;2.87;;;2.60;;
76210;SDS011;65003;49.518;11.280;2023-06-10T13:40:37;2.20;;;2.10;;
76210;SDS011;65003;49.518;11.280;2023-06-10T13:43:03;2.70;;;2.30;;
76210;SDS011;65003;49.518;11.280;2023-06-10T13:45:30;5.30;;;2.93;;
76210;SDS011;65003;49.518;11.280;2023-06-10T13:47:57;8.43;;;4.77;;
76210;SDS011;65003;49.518;11.280;2023-06-10T13:50:23;3.90;;;2.60;;
76210;SDS011;65003;49.518;11.280;2023-06-10T13:52:50;5.83;;;3.03;;
76210;SDS011;65003;49.518;11.280;2023-06-10T13:55:16;3.23;;;2.63;;
76210;SDS011;65003;49.518;11.280;2023-06-10T13:57:43;3.10;;;2.80;;
76210;SDS011;65003;49.518;11.280;2023-06-10T14:00:10;2.43;;;2.23;;
76210;SDS011;65003;49.518;11.280;2023-06-10T14:02:36;2.43;;;2.20;;
76210;SDS011;65003;49.518;11.280;2023-06-10T14:05:03;2.80;;;2.60;;
76210;SDS011;65003;49.518;11.280;2023-06-10T14:07:30;4.40;;;4.00;;
76210;SDS011;65003;49.518;11.280;2023-06-10T14:09:57;3.37;;;3.07;;
76210;SDS011;65003;49.518;11.280;2023-06-10T14:12:24;3.37;;;3.17;;
76210;SDS011;65003;49.518;11.280;2023-06-10T14:14:50;3.30;;;2.87;;
76210;SDS011;65003;49.518;11.280;2023-06-10T14:17:17;2.80;;;2.60;;
76210;SDS011;65003;49.518;11.280;2023-06-10T14:19:43;2.50;;;2.30;;
76210;SDS011;65003;49.518;11.280;2023-06-10T14:22:10;3.10;;;2.47;;
76210;SDS011;65003;49.518;11.280;2023-06-10T14:24:37;3.10;;;2.80;;
76210;SDS011;65003;49.518;11.280;2023-06-10T14:27:03;2.50;;;2.30;;
76210;SDS011;65003;49.518;11.280;2023-06-10T14:29:30;2.77;;;2.57;;
76210;SDS011;65003;49.518;11.280;2023-06-10T14:31:56;3.17;;;2.87;;
76210;SDS011;65003;49.518;11.280;2023-06-10T14:34:23;3.60;;;3.30;;
76210;SDS011;65003;49.518;11.280;2023-06-10T14:36:50;4.23;;;3.47;;
76210;SDS011;65003;49.518;11.280;2023-06-10T14:39:16;5.37;;;4.83;;
76210;SDS011;65003;49.518;11.280;2023-06-10T14:41:43;10.23;;;9.13;;
76210;SDS011;65003;49.518;11.280;2023-06-10T14:44:10;4.40;;;4.00;;